sensor_id;sensor_type;location;lat;lon;timestamp;P1;durP1;ratioP1;P2;durP2;ratioP2
3347;SDS011;1687;49.540;8.574;2022-10-16T00:01:21;3.97;;;1.63;;
3347;SDS011;1687;49.540;8.574;2022-10-16T00:03:49;2.33;;;1.10;;
3347;SDS011;1687;49.540;8.574;2022-10-16T00:06:16;2.53;;;1.30;;
3347;SDS011;1687;49.540;8.574;2022-10-16T00:08:44;1.87;;;1.00;;
3347;SDS011;1687;49.540;8.574;2022-10-16T00:11:12;3.37;;;1.33;;
3347;SDS011;1687;49.540;8.574;2022-10-16T00:13:43;4.60;;;1.10;;
3347;SDS011;1687;49.540;8.574;2022-10-16T00:16:11;3.37;;;1.40;;
3347;SDS011;1687;49.540;8.574;2022-10-16T00:18:38;2.33;;;1.03;;
3347;SDS011;1687;49.540;8.574;2022-10-16T00:21:05;1.97;;;1.20;;
3347;SDS011;1687;49.540;8.574;2022-10-16T00:23:36;2.33;;;1.20;;
3347;SDS011;1687;49.540;8.574;2022-10-16T00:26:04;4.07;;;1.43;;
3347;SDS011;1687;49.540;8.574;2022-10-16T00:28:34;2.60;;;2.10;;
3347;SDS011;1687;49.540;8.574;2022-10-16T00:31:07;5.03;;;1.73;;
3347;SDS011;1687;49.540;8.574;2022-10-16T00:33:36;1.70;;;1.00;;
3347;SDS011;1687;49.540;8.574;2022-10-16T00:36:04;2.10;;;1.40;;
3347;SDS011;1687;49.540;8.574;2022-10-16T00:38:31;1.30;;;1.00;;
3347;SDS011;1687;49.540;8.574;2022-10-16T00:40:57;2.27;;;1.20;;
3347;SDS011;1687;49.540;8.574;2022-10-16T00:43:34;2.63;;;1.40;;
3347;SDS011;1687;49.540;8.574;2022-10-16T00:46:04;1.57;;;0.90;;
3347;SDS011;1687;49.540;8.574;2022-10-16T00:49:00;1.60;;;1.27;;
3347;SDS011;1687;49.540;8.574;2022-10-16T00:54:16;3.17;;;1.87;;
3347;SDS011;1687;49.540;8.574;2022-10-16T00:56:46;1.50;;;0.80;;
3347;SDS011;1687;49.540;8.574;2022-10-16T00:59:20;3.50;;;1.20;;
3347;SDS011;1687;49.540;8.574;2022-10-16T01:01:53;2.40;;;1.17;;
3347;SDS011;1687;49.540;8.574;2022-10-16T01:04:19;3.43;;;1.23;;
3347;SDS011;1687;49.540;8.574;2022-10-16T01:09:37;3.40;;;1.17;;
3347;SDS011;1687;49.540;8.574;2022-10-16T01:12:16;1.80;;;0.90;;
3347;SDS011;1687;49.540;8.574;2022-10-16T01:15:11;1.20;;;0.73;;
3347;SDS011;1687;49.540;8.574;2022-10-16T01:18:02;2.37;;;1.20;;
3347;SDS011;1687;49.540;8.574;2022-10-16T01:20:42;1.20;;;0.80;;
3347;SDS011;1687;49.540;8.574;2022-10-16T01:28:47;2.17;;;1.10;;
3347;SDS011;1687;49.540;8.574;2022-10-16T01:31:22;1.87;;;0.97;;
3347;SDS011;1687;49.540;8.574;2022-10-16T01:34:05;1.50;;;1.10;;
3347;SDS011;1687;49.540;8.574;2022-10-16T01:36:37;1.47;;;0.97;;
3347;SDS011;1687;49.540;8.574;2022-10-16T01:39:09;3.00;;;0.97;;
3347;SDS011;1687;49.540;8.574;2022-10-16T01:41:41;2.23;;;1.10;;
3347;SDS011;1687;49.540;8.574;2022-10-16T01:44:12;2.83;;;1.03;;
3347;SDS011;1687;49.540;8.574;2022-10-16T01:46:45;2.60;;;0.83;;
3347;SDS011;1687;49.540;8.574;2022-10-16T01:49:14;2.40;;;1.27;;
3347;SDS011;1687;49.540;8.574;2022-10-16T01:51:41;1.57;;;0.80;;
3347;SDS011;1687;49.540;8.574;2022-10-16T01:54:10;1.57;;;0.87;;
3347;SDS011;1687;49.540;8.574;2022-10-16T01:56:40;1.50;;;0.83;;
3347;SDS011;1687;49.540;8.574;2022-10-16T01:59:11;4.77;;;1.77;;
3347;SDS011;1687;49.540;8.574;2022-10-16T02:01:42;1.27;;;0.90;;
3347;SDS011;1687;49.540;8.574;2022-10-16T02:04:18;1.20;;;0.73;;
3347;SDS011;1687;49.540;8.574;2022-10-16T02:06:53;1.20;;;0.70;;
3347;SDS011;1687;49.540;8.574;2022-10-16T02:09:19;2.23;;;0.97;;
3347;SDS011;1687;49.540;8.574;2022-10-16T02:11:46;1.67;;;0.97;;
3347;SDS011;1687;49.540;8.574;2022-10-16T02:14:14;1.40;;;0.73;;
3347;SDS011;1687;49.540;8.574;2022-10-16T02:16:44;2.50;;;1.00;;
3347;SDS011;1687;49.540;8.574;2022-10-16T02:19:14;2.33;;;1.10;;
3347;SDS011;1687;49.540;8.574;2022-10-16T02:27:55;2.33;;;1.10;;
3347;SDS011;1687;49.540;8.574;2022-10-16T02:30:36;3.57;;;0.80;;
3347;SDS011;1687;49.540;8.574;2022-10-16T02:33:07;2.13;;;1.00;;
3347;SDS011;1687;49.540;8.574;2022-10-16T02:35:35;1.30;;;0.70;;
3347;SDS011;1687;49.540;8.574;2022-10-16T02:38:03;1.87;;;1.03;;
3347;SDS011;1687;49.540;8.574;2022-10-16T02:40:29;1.87;;;1.10;;
3347;SDS011;1687;49.540;8.574;2022-10-16T02:42:55;2.50;;;1.10;;
3347;SDS011;1687;49.540;8.574;2022-10-16T02:45:21;4.73;;;1.47;;
3347;SDS011;1687;49.540;8.574;2022-10-16T02:47:49;1.10;;;0.60;;
3347;SDS011;1687;49.540;8.574;2022-10-16T02:50:15;1.53;;;1.40;;
3347;SDS011;1687;49.540;8.574;2022-10-16T02:52:41;3.27;;;1.00;;
3347;SDS011;1687;49.540;8.574;2022-10-16T02:55:07;1.73;;;1.00;;
3347;SDS011;1687;49.540;8.574;2022-10-16T02:57:33;1.70;;;0.80;;
3347;SDS011;1687;49.540;8.574;2022-10-16T03:00:02;3.47;;;1.33;;
3347;SDS011;1687;49.540;8.574;2022-10-16T03:02:33;2.20;;;1.13;;
3347;SDS011;1687;49.540;8.574;2022-10-16T03:04:58;3.13;;;1.33;;
3347;SDS011;1687;49.540;8.574;2022-10-16T03:07:24;2.50;;;0.90;;
3347;SDS011;1687;49.540;8.574;2022-10-16T03:09:50;3.97;;;1.10;;
3347;SDS011;1687;49.540;8.574;2022-10-16T03:12:15;4.40;;;1.00;;
3347;SDS011;1687;49.540;8.574;2022-10-16T03:14:41;3.43;;;1.03;;
3347;SDS011;1687;49.540;8.574;2022-10-16T03:17:07;2.03;;;1.20;;
3347;SDS011;1687;49.540;8.574;2022-10-16T03:19:32;2.63;;;1.00;;
3347;SDS011;1687;49.540;8.574;2022-10-16T03:21:58;1.70;;;0.80;;
3347;SDS011;1687;49.540;8.574;2022-10-16T03:24:24;1.90;;;0.90;;
3347;SDS011;1687;49.540;8.574;2022-10-16T03:26:49;3.20;;;1.80;;
3347;SDS011;1687;49.540;8.574;2022-10-16T03:29:15;2.80;;;0.87;;
3347;SDS011;1687;49.540;8.574;2022-10-16T03:31:41;2.90;;;1.23;;
3347;SDS011;1687;49.540;8.574;2022-10-16T03:34:06;1.70;;;1.03;;
3347;SDS011;1687;49.540;8.574;2022-10-16T03:36:32;3.60;;;1.43;;
3347;SDS011;1687;49.540;8.574;2022-10-16T03:38:58;8.00;;;1.43;;
3347;SDS011;1687;49.540;8.574;2022-10-16T03:41:23;4.83;;;1.10;;
3347;SDS011;1687;49.540;8.574;2022-10-16T03:43:49;1.43;;;0.90;;
3347;SDS011;1687;49.540;8.574;2022-10-16T03:46:15;1.17;;;0.63;;
3347;SDS011;1687;49.540;8.574;2022-10-16T03:48:40;5.63;;;1.27;;
3347;SDS011;1687;49.540;8.574;2022-10-16T03:51:06;1.80;;;1.00;;
3347;SDS011;1687;49.540;8.574;2022-10-16T03:53:32;2.43;;;1.03;;
3347;SDS011;1687;49.540;8.574;2022-10-16T03:55:57;1.67;;;0.90;;
3347;SDS011;1687;49.540;8.574;2022-10-16T03:58:23;1.20;;;0.70;;
3347;SDS011;1687;49.540;8.574;2022-10-16T04:00:49;1.20;;;0.70;;
3347;SDS011;1687;49.540;8.574;2022-10-16T04:03:15;2.17;;;0.87;;
3347;SDS011;1687;49.540;8.574;2022-10-16T04:05:40;1.60;;;0.90;;
3347;SDS011;1687;49.540;8.574;2022-10-16T04:08:06;1.90;;;1.03;;
3347;SDS011;1687;49.540;8.574;2022-10-16T04:10:32;1.13;;;0.60;;
3347;SDS011;1687;49.540;8.574;2022-10-16T04:12:58;2.37;;;1.37;;
3347;SDS011;1687;49.540;8.574;2022-10-16T04:15:24;1.10;;;0.60;;
3347;SDS011;1687;49.540;8.574;2022-10-16T04:17:50;2.30;;;1.17;;
3347;SDS011;1687;49.540;8.574;2022-10-16T04:20:16;2.17;;;0.93;;
3347;SDS011;1687;49.540;8.574;2022-10-16T04:22:42;1.47;;;0.77;;
3347;SDS011;1687;49.540;8.574;2022-10-16T04:25:09;4.43;;;1.30;;
3347;SDS011;1687;49.540;8.574;2022-10-16T04:27:36;1.83;;;1.00;;
3347;SDS011;1687;49.540;8.574;2022-10-16T04:30:03;1.40;;;0.80;;
3347;SDS011;1687;49.540;8.574;2022-10-16T04:32:30;1.40;;;0.70;;
3347;SDS011;1687;49.540;8.574;2022-10-16T04:34:55;1.40;;;0.77;;
3347;SDS011;1687;49.540;8.574;2022-10-16T04:37:25;2.90;;;1.50;;
3347;SDS011;1687;49.540;8.574;2022-10-16T04:39:51;1.97;;;0.90;;
3347;SDS011;1687;49.540;8.574;2022-10-16T04:42:18;2.23;;;1.00;;
3347;SDS011;1687;49.540;8.574;2022-10-16T04:44:45;1.60;;;1.10;;
3347;SDS011;1687;49.540;8.574;2022-10-16T04:47:11;1.30;;;0.70;;
3347;SDS011;1687;49.540;8.574;2022-10-16T04:49:38;4.27;;;1.17;;
3347;SDS011;1687;49.540;8.574;2022-10-16T04:52:04;2.13;;;1.00;;
3347;SDS011;1687;49.540;8.574;2022-10-16T04:54:29;1.90;;;0.73;;
3347;SDS011;1687;49.540;8.574;2022-10-16T04:56:55;2.60;;;1.20;;
3347;SDS011;1687;49.540;8.574;2022-10-16T04:59:21;3.57;;;1.40;;
3347;SDS011;1687;49.540;8.574;2022-10-16T05:01:47;2.53;;;1.20;;
3347;SDS011;1687;49.540;8.574;2022-10-16T05:04:14;3.10;;;1.30;;
3347;SDS011;1687;49.540;8.574;2022-10-16T05:06:40;5.10;;;2.33;;
3347;SDS011;1687;49.540;8.574;2022-10-16T05:09:06;2.83;;;1.63;;
3347;SDS011;1687;49.540;8.574;2022-10-16T05:11:33;2.07;;;1.20;;
3347;SDS011;1687;49.540;8.574;2022-10-16T05:13:59;1.60;;;0.83;;
3347;SDS011;1687;49.540;8.574;2022-10-16T05:16:25;2.60;;;1.73;;
3347;SDS011;1687;49.540;8.574;2022-10-16T05:18:51;2.27;;;1.03;;
3347;SDS011;1687;49.540;8.574;2022-10-16T05:21:18;1.93;;;1.17;;
3347;SDS011;1687;49.540;8.574;2022-10-16T05:23:43;2.57;;;1.47;;
3347;SDS011;1687;49.540;8.574;2022-10-16T05:26:10;1.83;;;0.90;;
3347;SDS011;1687;49.540;8.574;2022-10-16T05:28:35;2.93;;;1.20;;
3347;SDS011;1687;49.540;8.574;2022-10-16T05:31:07;2.37;;;1.30;;
3347;SDS011;1687;49.540;8.574;2022-10-16T05:33:34;2.30;;;1.60;;
3347;SDS011;1687;49.540;8.574;2022-10-16T05:36:01;3.63;;;1.47;;
3347;SDS011;1687;49.540;8.574;2022-10-16T05:38:29;4.97;;;1.93;;
3347;SDS011;1687;49.540;8.574;2022-10-16T05:40:55;5.33;;;2.20;;
3347;SDS011;1687;49.540;8.574;2022-10-16T05:43:21;5.00;;;2.60;;
3347;SDS011;1687;49.540;8.574;2022-10-16T05:45:53;1.27;;;0.80;;
3347;SDS011;1687;49.540;8.574;2022-10-16T05:48:28;5.57;;;1.50;;
3347;SDS011;1687;49.540;8.574;2022-10-16T05:50:57;2.47;;;1.20;;
3347;SDS011;1687;49.540;8.574;2022-10-16T05:53:26;1.20;;;0.70;;
3347;SDS011;1687;49.540;8.574;2022-10-16T05:55:53;1.30;;;0.70;;
3347;SDS011;1687;49.540;8.574;2022-10-16T05:58:20;1.20;;;0.67;;
3347;SDS011;1687;49.540;8.574;2022-10-16T06:00:56;1.90;;;1.00;;
3347;SDS011;1687;49.540;8.574;2022-10-16T06:03:28;3.33;;;1.20;;
3347;SDS011;1687;49.540;8.574;2022-10-16T06:05:54;2.03;;;0.90;;
3347;SDS011;1687;49.540;8.574;2022-10-16T06:08:20;4.13;;;1.73;;
3347;SDS011;1687;49.540;8.574;2022-10-16T06:10:47;1.80;;;1.60;;
3347;SDS011;1687;49.540;8.574;2022-10-16T06:13:24;2.87;;;1.37;;
3347;SDS011;1687;49.540;8.574;2022-10-16T06:15:50;1.90;;;0.80;;
3347;SDS011;1687;49.540;8.574;2022-10-16T06:18:16;4.20;;;0.90;;
3347;SDS011;1687;49.540;8.574;2022-10-16T06:20:41;2.13;;;1.00;;
3347;SDS011;1687;49.540;8.574;2022-10-16T06:23:07;1.80;;;1.23;;
3347;SDS011;1687;49.540;8.574;2022-10-16T06:25:33;5.17;;;1.50;;
3347;SDS011;1687;49.540;8.574;2022-10-16T06:27:58;2.70;;;1.67;;
3347;SDS011;1687;49.540;8.574;2022-10-16T06:30:24;3.63;;;1.97;;
3347;SDS011;1687;49.540;8.574;2022-10-16T06:32:50;2.20;;;1.20;;
3347;SDS011;1687;49.540;8.574;2022-10-16T06:35:16;3.97;;;1.67;;
3347;SDS011;1687;49.540;8.574;2022-10-16T06:37:41;1.93;;;1.10;;
3347;SDS011;1687;49.540;8.574;2022-10-16T06:40:07;3.67;;;1.70;;
3347;SDS011;1687;49.540;8.574;2022-10-16T06:42:33;2.67;;;1.77;;
3347;SDS011;1687;49.540;8.574;2022-10-16T06:44:58;6.50;;;3.33;;
3347;SDS011;1687;49.540;8.574;2022-10-16T06:47:24;3.60;;;2.47;;
3347;SDS011;1687;49.540;8.574;2022-10-16T06:49:50;3.60;;;1.40;;
3347;SDS011;1687;49.540;8.574;2022-10-16T06:52:15;5.03;;;1.80;;
3347;SDS011;1687;49.540;8.574;2022-10-16T06:54:41;7.03;;;2.67;;
3347;SDS011;1687;49.540;8.574;2022-10-16T06:57:07;7.17;;;2.73;;
3347;SDS011;1687;49.540;8.574;2022-10-16T06:59:32;2.90;;;1.70;;
3347;SDS011;1687;49.540;8.574;2022-10-16T07:01:58;3.00;;;1.53;;
3347;SDS011;1687;49.540;8.574;2022-10-16T07:04:24;2.63;;;1.63;;
3347;SDS011;1687;49.540;8.574;2022-10-16T07:06:49;1.70;;;0.70;;
3347;SDS011;1687;49.540;8.574;2022-10-16T07:09:16;1.40;;;0.83;;
3347;SDS011;1687;49.540;8.574;2022-10-16T07:11:42;2.63;;;1.27;;
3347;SDS011;1687;49.540;8.574;2022-10-16T07:14:15;2.47;;;1.10;;
3347;SDS011;1687;49.540;8.574;2022-10-16T07:16:43;2.03;;;1.50;;
3347;SDS011;1687;49.540;8.574;2022-10-16T07:19:09;2.80;;;1.57;;
3347;SDS011;1687;49.540;8.574;2022-10-16T07:21:36;2.30;;;2.10;;
3347;SDS011;1687;49.540;8.574;2022-10-16T07:24:03;3.40;;;1.50;;
3347;SDS011;1687;49.540;8.574;2022-10-16T07:26:32;3.10;;;1.60;;
3347;SDS011;1687;49.540;8.574;2022-10-16T07:29:01;1.80;;;1.10;;
3347;SDS011;1687;49.540;8.574;2022-10-16T07:31:28;3.20;;;1.20;;
3347;SDS011;1687;49.540;8.574;2022-10-16T07:33:54;1.90;;;0.97;;
3347;SDS011;1687;49.540;8.574;2022-10-16T07:36:21;4.80;;;1.60;;
3347;SDS011;1687;49.540;8.574;2022-10-16T07:38:46;1.97;;;1.10;;
3347;SDS011;1687;49.540;8.574;2022-10-16T07:41:14;1.80;;;1.37;;
3347;SDS011;1687;49.540;8.574;2022-10-16T07:43:46;1.80;;;0.80;;
3347;SDS011;1687;49.540;8.574;2022-10-16T07:46:17;3.40;;;1.20;;
3347;SDS011;1687;49.540;8.574;2022-10-16T07:48:45;3.83;;;1.00;;
3347;SDS011;1687;49.540;8.574;2022-10-16T07:51:13;3.70;;;1.90;;
3347;SDS011;1687;49.540;8.574;2022-10-16T07:53:44;4.23;;;1.63;;
3347;SDS011;1687;49.540;8.574;2022-10-16T07:56:10;4.27;;;1.83;;
3347;SDS011;1687;49.540;8.574;2022-10-16T07:58:36;5.10;;;1.87;;
3347;SDS011;1687;49.540;8.574;2022-10-16T08:01:03;2.57;;;0.90;;
3347;SDS011;1687;49.540;8.574;2022-10-16T08:03:33;1.47;;;1.10;;
3347;SDS011;1687;49.540;8.574;2022-10-16T08:06:00;3.83;;;1.10;;
3347;SDS011;1687;49.540;8.574;2022-10-16T08:08:27;1.87;;;0.90;;
3347;SDS011;1687;49.540;8.574;2022-10-16T08:10:53;1.63;;;1.00;;
3347;SDS011;1687;49.540;8.574;2022-10-16T08:13:19;2.83;;;1.10;;
3347;SDS011;1687;49.540;8.574;2022-10-16T08:15:45;2.80;;;1.63;;
3347;SDS011;1687;49.540;8.574;2022-10-16T08:18:11;1.83;;;1.00;;
3347;SDS011;1687;49.540;8.574;2022-10-16T08:20:39;5.63;;;1.53;;
3347;SDS011;1687;49.540;8.574;2022-10-16T08:23:05;5.23;;;1.53;;
3347;SDS011;1687;49.540;8.574;2022-10-16T08:25:34;2.10;;;1.40;;
3347;SDS011;1687;49.540;8.574;2022-10-16T08:28:03;2.87;;;1.37;;
3347;SDS011;1687;49.540;8.574;2022-10-16T08:30:30;4.60;;;1.63;;
3347;SDS011;1687;49.540;8.574;2022-10-16T08:32:56;2.60;;;1.10;;
3347;SDS011;1687;49.540;8.574;2022-10-16T08:35:23;2.70;;;1.57;;
3347;SDS011;1687;49.540;8.574;2022-10-16T08:37:49;1.67;;;1.00;;
3347;SDS011;1687;49.540;8.574;2022-10-16T08:42:56;2.20;;;1.40;;
3347;SDS011;1687;49.540;8.574;2022-10-16T08:45:28;2.17;;;1.10;;
3347;SDS011;1687;49.540;8.574;2022-10-16T08:48:45;4.70;;;1.73;;
3347;SDS011;1687;49.540;8.574;2022-10-16T08:51:31;2.10;;;1.20;;
3347;SDS011;1687;49.540;8.574;2022-10-16T08:54:04;1.77;;;0.90;;
3347;SDS011;1687;49.540;8.574;2022-10-16T08:56:31;5.80;;;1.27;;
3347;SDS011;1687;49.540;8.574;2022-10-16T08:58:58;1.80;;;0.90;;
3347;SDS011;1687;49.540;8.574;2022-10-16T09:01:27;1.10;;;0.60;;
3347;SDS011;1687;49.540;8.574;2022-10-16T09:07:16;2.43;;;0.97;;
3347;SDS011;1687;49.540;8.574;2022-10-16T09:10:22;1.20;;;0.70;;
3347;SDS011;1687;49.540;8.574;2022-10-16T09:13:14;3.07;;;1.50;;
3347;SDS011;1687;49.540;8.574;2022-10-16T09:15:49;3.50;;;1.27;;
3347;SDS011;1687;49.540;8.574;2022-10-16T09:18:37;1.73;;;1.03;;
3347;SDS011;1687;49.540;8.574;2022-10-16T09:21:25;1.23;;;0.80;;
3347;SDS011;1687;49.540;8.574;2022-10-16T09:23:58;1.80;;;1.10;;
3347;SDS011;1687;49.540;8.574;2022-10-16T09:26:34;1.40;;;0.90;;
3347;SDS011;1687;49.540;8.574;2022-10-16T09:29:00;2.83;;;1.60;;
3347;SDS011;1687;49.540;8.574;2022-10-16T09:31:27;1.73;;;0.70;;
3347;SDS011;1687;49.540;8.574;2022-10-16T09:33:54;7.03;;;1.23;;
3347;SDS011;1687;49.540;8.574;2022-10-16T09:36:26;5.53;;;1.23;;
3347;SDS011;1687;49.540;8.574;2022-10-16T09:39:07;1.97;;;1.00;;
3347;SDS011;1687;49.540;8.574;2022-10-16T09:41:37;3.10;;;1.40;;
3347;SDS011;1687;49.540;8.574;2022-10-16T09:44:15;2.80;;;1.20;;
3347;SDS011;1687;49.540;8.574;2022-10-16T09:47:15;6.27;;;1.47;;
3347;SDS011;1687;49.540;8.574;2022-10-16T09:49:58;2.13;;;1.00;;
3347;SDS011;1687;49.540;8.574;2022-10-16T09:52:27;3.00;;;2.10;;
3347;SDS011;1687;49.540;8.574;2022-10-16T09:57:50;2.07;;;1.13;;
3347;SDS011;1687;49.540;8.574;2022-10-16T10:00:19;3.97;;;1.20;;
3347;SDS011;1687;49.540;8.574;2022-10-16T10:02:46;2.03;;;1.30;;
3347;SDS011;1687;49.540;8.574;2022-10-16T10:05:22;1.40;;;0.87;;
3347;SDS011;1687;49.540;8.574;2022-10-16T10:07:56;1.40;;;0.90;;
3347;SDS011;1687;49.540;8.574;2022-10-16T10:10:31;2.77;;;1.27;;
3347;SDS011;1687;49.540;8.574;2022-10-16T10:12:59;3.10;;;1.13;;
3347;SDS011;1687;49.540;8.574;2022-10-16T10:15:25;1.20;;;0.80;;
3347;SDS011;1687;49.540;8.574;2022-10-16T10:17:58;2.17;;;1.20;;
3347;SDS011;1687;49.540;8.574;2022-10-16T10:20:34;2.77;;;1.97;;
3347;SDS011;1687;49.540;8.574;2022-10-16T10:23:20;4.00;;;1.20;;
3347;SDS011;1687;49.540;8.574;2022-10-16T10:25:57;1.50;;;1.10;;
3347;SDS011;1687;49.540;8.574;2022-10-16T10:31:38;4.93;;;1.37;;
3347;SDS011;1687;49.540;8.574;2022-10-16T10:37:49;8.70;;;1.60;;
3347;SDS011;1687;49.540;8.574;2022-10-16T10:49:09;3.57;;;2.03;;
3347;SDS011;1687;49.540;8.574;2022-10-16T10:54:55;3.80;;;1.37;;
3347;SDS011;1687;49.540;8.574;2022-10-16T11:06:40;1.80;;;1.00;;
3347;SDS011;1687;49.540;8.574;2022-10-16T11:09:26;2.23;;;1.10;;
3347;SDS011;1687;49.540;8.574;2022-10-16T11:12:05;2.13;;;1.00;;
3347;SDS011;1687;49.540;8.574;2022-10-16T11:14:57;2.53;;;1.20;;
3347;SDS011;1687;49.540;8.574;2022-10-16T11:17:38;2.03;;;0.80;;
3347;SDS011;1687;49.540;8.574;2022-10-16T11:22:54;3.30;;;1.20;;
3347;SDS011;1687;49.540;8.574;2022-10-16T11:25:32;2.47;;;1.37;;
3347;SDS011;1687;49.540;8.574;2022-10-16T11:30:47;1.60;;;0.80;;
3347;SDS011;1687;49.540;8.574;2022-10-16T11:33:37;2.77;;;1.00;;
3347;SDS011;1687;49.540;8.574;2022-10-16T11:41:53;3.37;;;1.60;;
3347;SDS011;1687;49.540;8.574;2022-10-16T11:53:21;2.37;;;1.27;;
3347;SDS011;1687;49.540;8.574;2022-10-16T11:56:07;4.20;;;1.47;;
3347;SDS011;1687;49.540;8.574;2022-10-16T11:58:50;7.90;;;1.40;;
3347;SDS011;1687;49.540;8.574;2022-10-16T12:06:57;2.93;;;1.43;;
3347;SDS011;1687;49.540;8.574;2022-10-16T12:09:30;1.80;;;0.90;;
3347;SDS011;1687;49.540;8.574;2022-10-16T12:11:58;2.13;;;0.87;;
3347;SDS011;1687;49.540;8.574;2022-10-16T12:14:37;2.47;;;1.20;;
3347;SDS011;1687;49.540;8.574;2022-10-16T12:19:45;4.00;;;1.00;;
3347;SDS011;1687;49.540;8.574;2022-10-16T12:22:54;2.40;;;1.53;;
3347;SDS011;1687;49.540;8.574;2022-10-16T12:25:25;6.23;;;1.30;;
3347;SDS011;1687;49.540;8.574;2022-10-16T12:28:20;6.70;;;1.80;;
3347;SDS011;1687;49.540;8.574;2022-10-16T12:30:54;2.17;;;1.13;;
3347;SDS011;1687;49.540;8.574;2022-10-16T12:33:42;2.50;;;1.07;;
3347;SDS011;1687;49.540;8.574;2022-10-16T12:36:36;2.93;;;1.43;;
3347;SDS011;1687;49.540;8.574;2022-10-16T12:39:02;2.37;;;1.47;;
3347;SDS011;1687;49.540;8.574;2022-10-16T12:44:04;2.93;;;1.60;;
3347;SDS011;1687;49.540;8.574;2022-10-16T12:46:49;4.50;;;1.63;;
3347;SDS011;1687;49.540;8.574;2022-10-16T12:51:53;2.27;;;1.00;;
3347;SDS011;1687;49.540;8.574;2022-10-16T12:54:36;2.23;;;0.70;;
3347;SDS011;1687;49.540;8.574;2022-10-16T12:57:09;3.67;;;1.30;;
3347;SDS011;1687;49.540;8.574;2022-10-16T13:08:54;2.07;;;1.27;;
3347;SDS011;1687;49.540;8.574;2022-10-16T13:17:45;3.17;;;1.70;;
3347;SDS011;1687;49.540;8.574;2022-10-16T13:20:34;4.20;;;2.00;;
3347;SDS011;1687;49.540;8.574;2022-10-16T13:23:13;1.67;;;1.00;;
3347;SDS011;1687;49.540;8.574;2022-10-16T13:28:51;2.90;;;1.10;;
3347;SDS011;1687;49.540;8.574;2022-10-16T13:31:19;1.70;;;1.00;;
3347;SDS011;1687;49.540;8.574;2022-10-16T13:33:52;2.60;;;1.33;;
3347;SDS011;1687;49.540;8.574;2022-10-16T13:39:03;5.87;;;1.67;;
3347;SDS011;1687;49.540;8.574;2022-10-16T13:41:57;7.00;;;1.20;;
3347;SDS011;1687;49.540;8.574;2022-10-16T13:44:26;1.93;;;1.20;;
3347;SDS011;1687;49.540;8.574;2022-10-16T13:46:59;1.87;;;1.20;;
3347;SDS011;1687;49.540;8.574;2022-10-16T13:49:26;4.00;;;1.60;;
3347;SDS011;1687;49.540;8.574;2022-10-16T13:51:55;2.30;;;1.33;;
3347;SDS011;1687;49.540;8.574;2022-10-16T13:54:26;4.30;;;1.70;;
3347;SDS011;1687;49.540;8.574;2022-10-16T13:56:53;1.90;;;1.20;;
3347;SDS011;1687;49.540;8.574;2022-10-16T13:59:24;1.80;;;0.93;;
3347;SDS011;1687;49.540;8.574;2022-10-16T14:01:53;2.03;;;1.10;;
3347;SDS011;1687;49.540;8.574;2022-10-16T14:04:22;1.57;;;0.80;;
3347;SDS011;1687;49.540;8.574;2022-10-16T14:06:50;8.03;;;2.30;;
3347;SDS011;1687;49.540;8.574;2022-10-16T14:09:24;5.40;;;1.03;;
3347;SDS011;1687;49.540;8.574;2022-10-16T14:11:54;2.40;;;1.33;;
3347;SDS011;1687;49.540;8.574;2022-10-16T14:14:27;3.70;;;2.10;;
3347;SDS011;1687;49.540;8.574;2022-10-16T14:17:04;3.73;;;1.37;;
3347;SDS011;1687;49.540;8.574;2022-10-16T14:19:30;2.47;;;0.90;;
3347;SDS011;1687;49.540;8.574;2022-10-16T14:21:57;2.27;;;1.37;;
3347;SDS011;1687;49.540;8.574;2022-10-16T14:24:32;2.20;;;1.47;;
3347;SDS011;1687;49.540;8.574;2022-10-16T14:27:00;1.97;;;1.00;;
3347;SDS011;1687;49.540;8.574;2022-10-16T14:29:27;3.10;;;1.27;;
3347;SDS011;1687;49.540;8.574;2022-10-16T14:32:01;2.10;;;1.20;;
3347;SDS011;1687;49.540;8.574;2022-10-16T14:34:30;2.90;;;1.70;;
3347;SDS011;1687;49.540;8.574;2022-10-16T14:37:23;2.43;;;1.00;;
3347;SDS011;1687;49.540;8.574;2022-10-16T14:39:53;5.00;;;1.83;;
3347;SDS011;1687;49.540;8.574;2022-10-16T14:42:20;2.57;;;1.33;;
3347;SDS011;1687;49.540;8.574;2022-10-16T14:44:49;2.60;;;1.20;;
3347;SDS011;1687;49.540;8.574;2022-10-16T14:47:21;2.20;;;1.30;;
3347;SDS011;1687;49.540;8.574;2022-10-16T14:49:51;3.23;;;1.47;;
3347;SDS011;1687;49.540;8.574;2022-10-16T14:52:20;4.13;;;1.43;;
3347;SDS011;1687;49.540;8.574;2022-10-16T14:54:50;1.90;;;1.20;;
3347;SDS011;1687;49.540;8.574;2022-10-16T14:57:20;1.50;;;1.00;;
3347;SDS011;1687;49.540;8.574;2022-10-16T14:59:49;2.63;;;1.10;;
3347;SDS011;1687;49.540;8.574;2022-10-16T15:04:54;3.40;;;1.57;;
3347;SDS011;1687;49.540;8.574;2022-10-16T15:07:20;4.30;;;1.20;;
3347;SDS011;1687;49.540;8.574;2022-10-16T15:09:46;1.57;;;1.10;;
3347;SDS011;1687;49.540;8.574;2022-10-16T15:12:12;2.23;;;1.43;;
3347;SDS011;1687;49.540;8.574;2022-10-16T15:14:38;3.63;;;1.90;;
3347;SDS011;1687;49.540;8.574;2022-10-16T15:17:03;2.27;;;1.70;;
3347;SDS011;1687;49.540;8.574;2022-10-16T15:19:29;2.57;;;1.20;;
3347;SDS011;1687;49.540;8.574;2022-10-16T15:21:55;11.60;;;2.67;;
3347;SDS011;1687;49.540;8.574;2022-10-16T15:24:21;5.30;;;2.43;;
3347;SDS011;1687;49.540;8.574;2022-10-16T15:26:47;2.60;;;1.47;;
3347;SDS011;1687;49.540;8.574;2022-10-16T15:29:13;3.83;;;1.50;;
3347;SDS011;1687;49.540;8.574;2022-10-16T15:31:40;4.97;;;1.67;;
3347;SDS011;1687;49.540;8.574;2022-10-16T15:34:08;2.03;;;1.60;;
3347;SDS011;1687;49.540;8.574;2022-10-16T15:36:35;1.93;;;1.30;;
3347;SDS011;1687;49.540;8.574;2022-10-16T15:39:03;5.57;;;2.00;;
3347;SDS011;1687;49.540;8.574;2022-10-16T15:41:35;2.70;;;1.50;;
3347;SDS011;1687;49.540;8.574;2022-10-16T15:44:01;5.07;;;1.57;;
3347;SDS011;1687;49.540;8.574;2022-10-16T15:46:27;6.07;;;1.97;;
3347;SDS011;1687;49.540;8.574;2022-10-16T15:48:55;2.10;;;1.30;;
3347;SDS011;1687;49.540;8.574;2022-10-16T15:51:23;2.00;;;1.37;;
3347;SDS011;1687;49.540;8.574;2022-10-16T15:53:52;5.90;;;1.77;;
3347;SDS011;1687;49.540;8.574;2022-10-16T15:56:18;5.13;;;2.03;;
3347;SDS011;1687;49.540;8.574;2022-10-16T15:58:44;2.67;;;1.87;;
3347;SDS011;1687;49.540;8.574;2022-10-16T16:01:10;9.90;;;3.07;;
3347;SDS011;1687;49.540;8.574;2022-10-16T16:03:37;7.70;;;2.33;;
3347;SDS011;1687;49.540;8.574;2022-10-16T16:06:06;2.53;;;1.63;;
3347;SDS011;1687;49.540;8.574;2022-10-16T16:08:34;5.30;;;2.40;;
3347;SDS011;1687;49.540;8.574;2022-10-16T16:11:07;5.30;;;1.40;;
3347;SDS011;1687;49.540;8.574;2022-10-16T16:13:38;3.27;;;2.00;;
3347;SDS011;1687;49.540;8.574;2022-10-16T16:16:08;4.50;;;2.73;;
3347;SDS011;1687;49.540;8.574;2022-10-16T16:18:35;4.10;;;2.27;;
3347;SDS011;1687;49.540;8.574;2022-10-16T16:21:01;4.33;;;2.20;;
3347;SDS011;1687;49.540;8.574;2022-10-16T16:23:28;2.80;;;1.17;;
3347;SDS011;1687;49.540;8.574;2022-10-16T16:26:13;3.67;;;1.40;;
3347;SDS011;1687;49.540;8.574;2022-10-16T16:28:50;2.60;;;1.47;;
3347;SDS011;1687;49.540;8.574;2022-10-16T16:31:17;5.13;;;2.70;;
3347;SDS011;1687;49.540;8.574;2022-10-16T16:33:43;5.93;;;2.90;;
3347;SDS011;1687;49.540;8.574;2022-10-16T16:36:08;2.47;;;1.63;;
3347;SDS011;1687;49.540;8.574;2022-10-16T16:38:34;5.67;;;2.57;;
3347;SDS011;1687;49.540;8.574;2022-10-16T16:41:10;7.50;;;2.77;;
3347;SDS011;1687;49.540;8.574;2022-10-16T16:43:37;3.60;;;2.13;;
3347;SDS011;1687;49.540;8.574;2022-10-16T16:46:03;2.57;;;1.23;;
3347;SDS011;1687;49.540;8.574;2022-10-16T16:48:29;3.00;;;1.77;;
3347;SDS011;1687;49.540;8.574;2022-10-16T16:50:54;2.50;;;1.47;;
3347;SDS011;1687;49.540;8.574;2022-10-16T16:53:21;3.40;;;1.90;;
3347;SDS011;1687;49.540;8.574;2022-10-16T16:55:47;3.87;;;1.70;;
3347;SDS011;1687;49.540;8.574;2022-10-16T16:58:13;5.27;;;2.57;;
3347;SDS011;1687;49.540;8.574;2022-10-16T17:00:47;4.73;;;2.60;;
3347;SDS011;1687;49.540;8.574;2022-10-16T17:03:13;9.87;;;3.23;;
3347;SDS011;1687;49.540;8.574;2022-10-16T17:05:39;3.70;;;2.40;;
3347;SDS011;1687;49.540;8.574;2022-10-16T17:08:08;9.03;;;3.67;;
3347;SDS011;1687;49.540;8.574;2022-10-16T17:10:33;5.10;;;3.00;;
3347;SDS011;1687;49.540;8.574;2022-10-16T17:13:07;3.83;;;2.60;;
3347;SDS011;1687;49.540;8.574;2022-10-16T17:15:33;7.17;;;3.37;;
3347;SDS011;1687;49.540;8.574;2022-10-16T17:17:58;10.03;;;4.00;;
3347;SDS011;1687;49.540;8.574;2022-10-16T17:20:24;7.83;;;4.10;;
3347;SDS011;1687;49.540;8.574;2022-10-16T17:22:50;4.37;;;2.63;;
3347;SDS011;1687;49.540;8.574;2022-10-16T17:25:16;9.20;;;4.87;;